Time;durP1;ratioP1;P1;durP2;ratioP2;P2;SDS_P1;SDS_P2;PMS_P1;PMS_P2;Temp;Humidity;BMP_temperature;BMP_pressure;BME280_temperature;BME280_humidity;BME280_pressure;Samples;Min_cycle;Max_cycle;Signal;HPM_P1;HPM_P2
2021/12/27 00:01:58;;;;;;;38.78;15.63;;;;;;;-7.04;80.20;99775.19;1759025;80;21664;-66
2021/12/27 00:04:26;;;;;;;40.45;14.87;;;;;;;-7.01;80.09;99783.36;1764497;80;21143;-65
2021/12/27 00:06:53;;;;;;;47.03;18.00;;;;;;;-7.00;80.06;99783.66;1752420;80;20910;-64
2021/12/27 00:09:21;;;;;;;40.43;15.13;;;;;;;-7.02;79.90;99784.37;1758658;80;20956;-66
2021/12/27 00:11:51;;;;;;;37.78;15.45;;;;;;;-7.03;79.96;99786.23;1764858;80;20898;-66
2021/12/27 00:14:19;;;;;;;41.70;16.87;;;;;;;-7.04;79.92;99787.75;1749644;80;21071;-66
2021/12/27 00:16:46;;;;;;;31.02;14.38;;;;;;;-7.09;79.88;99790.52;1765828;80;21134;-66
2021/12/27 00:19:14;;;;;;;45.73;16.77;;;;;;;-7.07;80.13;99790.32;1759058;80;21002;-66
2021/12/27 00:21:40;;;;;;;32.17;14.47;;;;;;;-7.05;80.10;99795.48;1766434;80;20945;-66
2021/12/27 00:24:07;;;;;;;38.28;14.98;;;;;;;-7.03;80.25;99796.13;1767223;80;21047;-66
2021/12/27 00:26:35;;;;;;;36.15;15.20;;;;;;;-7.00;80.29;99799.23;1746714;80;21044;-66
2021/12/27 00:29:02;;;;;;;36.77;14.25;;;;;;;-6.97;80.14;99795.32;1760868;80;21329;-65
2021/12/27 00:31:28;;;;;;;45.10;15.83;;;;;;;-6.96;80.10;99803.70;1763920;80;21001;-67
2021/12/27 00:33:54;;;;;;;45.67;17.73;;;;;;;-6.92;80.33;99810.30;1761542;80;20917;-67
2021/12/27 00:36:22;;;;;;;37.67;15.98;;;;;;;-6.85;80.19;99809.83;1760686;80;20986;-68
2021/12/27 00:38:50;;;;;;;44.38;17.57;;;;;;;-6.81;79.95;99806.75;1748208;80;20920;-65
2021/12/27 00:41:18;;;;;;;39.00;15.05;;;;;;;-6.80;79.71;99805.72;1758214;80;22077;-68
2021/12/27 00:43:45;;;;;;;38.88;15.85;;;;;;;-6.83;79.49;99812.31;1743869;80;20920;-65
2021/12/27 00:46:11;;;;;;;35.03;15.05;;;;;;;-6.88;79.49;99807.55;1747818;80;20925;-65
2021/12/27 00:48:38;;;;;;;36.55;15.53;;;;;;;-6.92;79.59;99810.30;1745632;80;20937;-66
2021/12/27 00:51:04;;;;;;;37.35;15.65;;;;;;;-6.92;79.66;99802.77;1748353;80;20924;-65
2021/12/27 00:53:34;;;;;;;36.42;13.48;;;;;;;-6.93;79.65;99805.98;1764510;80;21134;-66
2021/12/27 00:56:02;;;;;;;38.48;15.00;;;;;;;-6.94;79.75;99802.96;1760965;80;21237;-64
2021/12/27 00:58:29;;;;;;;35.80;15.58;;;;;;;-6.94;79.75;99801.63;1770663;80;20962;-66
2021/12/27 01:00:55;;;;;;;37.58;14.78;;;;;;;-6.93;79.92;99817.20;1763044;80;20953;-64
2021/12/27 01:03:21;;;;;;;28.77;14.18;;;;;;;-6.92;80.05;99810.80;1752762;80;20861;-65
2021/12/27 01:05:48;;;;;;;32.00;12.63;;;;;;;-6.91;79.97;99813.31;1753561;80;23328;-65
2021/12/27 01:08:17;;;;;;;34.65;14.18;;;;;;;-6.91;79.83;99810.63;1749886;80;21482;-67
2021/12/27 01:13:47;;;;;;;36.75;14.87;;;;;;;-6.92;80.02;99807.62;1722076;82;21071;-66
2021/12/27 01:16:10;;;;;;;31.48;13.05;;;;;;;-6.90;80.16;99809.59;1759964;80;21024;-65
2021/12/27 01:18:44;;;;;;;41.70;16.37;;;;;;;-6.87;80.17;99809.20;1759374;80;21773;-67
2021/12/27 01:21:10;;;;;;;34.23;13.60;;;;;;;-6.83;80.09;99813.66;1759645;80;20873;-66
2021/12/27 01:23:37;;;;;;;38.95;14.00;;;;;;;-6.82;79.95;99819.31;1767191;80;20985;-66
2021/12/27 01:26:06;;;;;;;35.33;14.25;;;;;;;-6.81;80.03;99826.86;1751438;80;21048;-64
2021/12/27 01:28:33;;;;;;;32.08;13.68;;;;;;;-6.82;79.90;99822.53;1752623;80;20991;-67
2021/12/27 01:31:01;;;;;;;36.48;14.30;;;;;;;-6.84;79.99;99820.05;1752468;80;21146;-65
2021/12/27 01:33:28;;;;;;;43.00;15.25;;;;;;;-6.86;79.87;99828.27;1769781;80;21077;-65
2021/12/27 01:35:54;;;;;;;38.35;15.40;;;;;;;-6.82;80.19;99831.91;1761035;80;21061;-65
2021/12/27 01:38:22;;;;;;;37.40;14.23;;;;;;;-6.80;80.07;99829.84;1752418;80;21551;-64
2021/12/27 01:40:53;;;;;;;42.65;14.73;;;;;;;-6.81;80.07;99836.23;1750002;80;20956;-64
2021/12/27 01:43:25;;;;;;;33.73;14.65;;;;;;;-6.77;80.37;99835.64;1758601;80;21131;-66
2021/12/27 01:45:55;;;;;;;30.20;12.40;;;;;;;-6.69;80.52;99836.01;1761070;80;20974;-66
2021/12/27 01:48:24;;;;;;;35.80;14.28;;;;;;;-6.65;80.44;99825.19;1752206;80;21123;-66
2021/12/27 01:53:42;;;;;;;26.45;11.03;;;;;;;-6.63;80.28;99829.84;1692251;83;20949;-66
2021/12/27 01:56:10;;;;;;;28.30;12.37;;;;;;;-6.61;80.28;99831.82;1692284;83;21181;-66
2021/12/27 01:58:37;;;;;;;41.58;13.08;;;;;;;-6.68;79.95;99834.13;1687239;83;21500;-65
2021/12/27 02:01:06;;;;;;;28.62;12.28;;;;;;;-6.78;79.92;99834.00;1689288;83;21003;-66
2021/12/27 02:03:33;;;;;;;27.77;12.58;;;;;;;-6.84;80.24;99840.96;1694670;83;20917;-66
2021/12/27 02:06:01;;;;;;;31.55;13.00;;;;;;;-6.83;80.46;99837.78;1703290;83;21185;-66
2021/12/27 02:08:30;;;;;;;24.65;12.45;;;;;;;-6.80;80.82;99836.54;1712747;81;21031;-66
2021/12/27 02:10:57;;;;;;;28.77;11.68;;;;;;;-6.77;80.87;99832.15;1719782;81;21361;-65
2021/12/27 02:13:25;;;;;;;29.60;12.18;;;;;;;-6.74;80.97;99831.75;1726013;81;20866;-67
2021/12/27 02:15:52;;;;;;;29.00;10.78;;;;;;;-6.72;80.98;99839.09;1697002;81;21039;-64
2021/12/27 02:18:18;;;;;;;33.42;12.95;;;;;;;-6.73;81.02;99834.73;1724467;81;21477;-67
2021/12/27 02:20:45;;;;;;;31.75;12.50;;;;;;;-6.85;80.94;99836.64;1723124;81;21124;-67
2021/12/27 02:23:18;;;;;;;25.80;11.85;;;;;;;-6.88;81.16;99835.70;1738889;82;20946;-67
2021/12/27 02:25:44;;;;;;;35.10;13.00;;;;;;;-6.92;81.24;99833.58;1737020;81;20922;-65
2021/12/27 02:28:12;;;;;;;34.13;12.95;;;;;;;-6.87;81.77;99834.66;1734252;81;21060;-66
2021/12/27 02:30:41;;;;;;;34.65;15.43;;;;;;;-6.85;81.75;99837.98;1737066;81;21464;-66
2021/12/27 02:33:10;;;;;;;29.48;11.25;;;;;;;-6.78;82.01;99831.81;1735495;81;21377;-64
2021/12/27 02:35:42;;;;;;;33.42;13.85;;;;;;;-6.69;82.11;99839.19;1743354;81;20855;-67
2021/12/27 02:38:13;;;;;;;28.50;13.48;;;;;;;-6.77;81.88;99839.66;1746513;82;20959;-66
2021/12/27 02:40:39;;;;;;;24.47;11.95;;;;;;;-6.91;82.02;99841.95;1741799;82;21044;-66
2021/12/27 02:43:10;;;;;;;30.60;12.30;;;;;;;-7.00;82.61;99841.28;1747068;82;21581;-62
2021/12/27 02:45:47;;;;;;;24.67;11.90;;;;;;;-7.11;82.75;99839.45;1744478;82;21128;-65
2021/12/27 02:48:15;;;;;;;23.27;10.95;;;;;;;-7.13;83.08;99846.84;1732390;82;21033;-66
2021/12/27 02:50:43;;;;;;;25.25;10.93;;;;;;;-7.04;83.55;99841.34;1726608;82;21400;-66
2021/12/27 02:53:09;;;;;;;21.42;11.12;;;;;;;-6.99;83.54;99845.60;1733786;82;21024;-66
2021/12/27 02:55:36;;;;;;;25.55;11.70;;;;;;;-6.98;83.68;99845.94;1740474;82;21946;-67
2021/12/27 02:58:02;;;;;;;24.55;12.05;;;;;;;-7.09;83.62;99841.94;1741601;82;21119;-67
2021/12/27 03:00:38;;;;;;;29.10;11.40;;;;;;;-7.11;84.00;99850.17;1739959;81;21052;-64
2021/12/27 03:03:04;;;;;;;27.00;11.05;;;;;;;-7.10;84.17;99845.65;1731630;81;21010;-66
2021/12/27 03:05:31;;;;;;;26.12;11.20;;;;;;;-7.15;84.15;99846.23;1727237;81;20946;-64
2021/12/27 03:07:58;;;;;;;27.48;12.20;;;;;;;-7.14;84.30;99855.09;1737120;81;21550;-66
2021/12/27 03:10:29;;;;;;;27.07;12.82;;;;;;;-7.21;84.35;99859.89;1740982;82;21116;-65
2021/12/27 03:12:58;;;;;;;22.95;12.00;;;;;;;-7.23;84.60;99852.55;1781891;79;20958;-66
2021/12/27 03:15:24;;;;;;;22.60;9.68;;;;;;;-7.17;84.92;99854.98;1782648;79;20991;-66
2021/12/27 03:17:54;;;;;;;28.15;12.23;;;;;;;-7.07;85.14;99851.95;1785832;80;20960;-66
2021/12/27 03:20:24;;;;;;;28.73;14.05;;;;;;;-7.12;84.76;99851.20;1780842;79;20940;-66
2021/12/27 03:22:52;;;;;;;32.90;14.30;;;;;;;-7.22;84.72;99856.91;1782449;79;21076;-66
2021/12/27 03:25:22;;;;;;;31.60;13.80;;;;;;;-7.28;85.00;99862.21;1779317;79;20911;-67
2021/12/27 03:27:50;;;;;;;31.30;13.90;;;;;;;-7.38;85.00;99862.02;1750613;79;20923;-65
2021/12/27 03:30:22;;;;;;;33.73;15.70;;;;;;;-7.36;85.33;99869.36;1780214;79;21555;-67
2021/12/27 03:32:50;;;;;;;38.48;14.90;;;;;;;-7.35;85.35;99871.50;1777253;80;20924;-66
2021/12/27 03:35:25;;;;;;;30.92;13.68;;;;;;;-7.34;85.36;99881.22;1771475;80;21210;-64
2021/12/27 03:37:47;;;;;;;36.98;16.52;;;;;;;-7.29;85.50;99880.63;1772876;80;21460;-67
2021/12/27 03:40:17;;;;;;;34.70;15.45;;;;;;;-7.21;85.73;99885.84;1781100;79;20951;-66
2021/12/27 03:42:49;;;;;;;37.67;16.27;;;;;;;-7.14;85.73;99880.53;1775249;79;21062;-65
2021/12/27 03:45:12;;;;;;;36.10;15.40;;;;;;;-7.09;85.71;99878.11;1766269;80;21032;-67
2021/12/27 03:47:39;;;;;;;35.45;16.42;;;;;;;-7.06;85.63;99884.41;1767471;81;21133;-64
2021/12/27 03:50:05;;;;;;;36.13;16.35;;;;;;;-7.00;85.68;99883.66;1769075;80;20955;-66
2021/12/27 03:52:33;;;;;;;34.50;16.62;;;;;;;-6.92;85.77;99889.36;1771582;80;20986;-65
2021/12/27 03:55:00;;;;;;;32.65;16.10;;;;;;;-6.88;85.59;99889.30;1773611;80;20979;-66
2021/12/27 03:57:27;;;;;;;29.02;16.20;;;;;;;-6.98;85.25;99896.85;1778820;79;20991;-64
2021/12/27 04:00:46;;;;;;;38.95;18.17;;;;;;;-7.06;85.33;99901.83;1781061;78;21750;-67
2021/12/27 04:02:24;;;;;;;35.68;16.15;;;;;;;-7.04;85.61;99898.95;1766490;80;21047;-66
2021/12/27 04:04:51;;;;;;;34.88;16.85;;;;;;;-6.92;86.19;99902.77;1787210;78;21448;-67
2021/12/27 04:07:18;;;;;;;27.55;14.18;;;;;;;-6.79;86.31;99899.88;1781623;79;21566;-65
2021/12/27 04:09:45;;;;;;;37.03;15.95;;;;;;;-6.80;85.70;99888.31;1770842;79;21042;-65
2021/12/27 04:12:11;;;;;;;31.15;16.02;;;;;;;-6.92;85.34;99897.41;1783115;79;21137;-65
2021/12/27 04:14:39;;;;;;;32.85;16.87;;;;;;;-6.95;85.38;99891.09;1783423;80;20914;-67
2021/12/27 04:17:07;;;;;;;37.78;17.12;;;;;;;-6.91;85.47;99900.92;1780165;80;20963;-64
2021/12/27 04:19:33;;;;;;;31.70;16.48;;;;;;;-6.88;85.57;99900.52;1786617;80;20962;-66
2021/12/27 04:22:00;;;;;;;34.80;17.60;;;;;;;-6.79;85.84;99903.89;1779383;80;21399;-66
2021/12/27 04:24:27;;;;;;;41.75;17.95;;;;;;;-6.73;85.75;99905.28;1773924;79;21419;-64
2021/12/27 04:26:55;;;;;;;33.50;19.05;;;;;;;-6.70;85.56;99913.42;1773943;79;20932;-67
2021/12/27 04:29:21;;;;;;;38.53;18.75;;;;;;;-6.70;85.42;99905.91;1775555;80;20944;-67
2021/12/27 04:31:49;;;;;;;38.38;17.80;;;;;;;-6.69;85.35;99914.27;1785488;79;21511;-63
2021/12/27 04:34:18;;;;;;;39.53;18.55;;;;;;;-6.66;85.47;99924.09;1778612;79;21055;-66
2021/12/27 04:36:45;;;;;;;29.42;16.87;;;;;;;-6.58;85.67;99927.65;1783532;80;21133;-65
2021/12/27 04:39:13;;;;;;;42.67;17.35;;;;;;;-6.52;85.53;99933.05;1775178;80;21690;-66
2021/12/27 04:41:39;;;;;;;44.83;19.95;;;;;;;-6.51;85.41;99934.70;1777562;79;20848;-65
2021/12/27 04:44:07;;;;;;;34.85;16.57;;;;;;;-6.45;85.59;99929.57;1773228;79;21019;-67
2021/12/27 04:46:33;;;;;;;35.70;17.95;;;;;;;-6.36;85.70;99936.42;1779310;79;21398;-67
2021/12/27 04:49:00;;;;;;;37.70;17.48;;;;;;;-6.37;85.32;99936.95;1770450;79;22323;-66
2021/12/27 04:51:27;;;;;;;36.17;17.82;;;;;;;-6.36;85.28;99943.13;1766793;80;20960;-64
2021/12/27 04:53:53;;;;;;;35.70;16.90;;;;;;;-6.36;85.14;99945.30;1768018;81;20971;-66
2021/12/27 04:56:21;;;;;;;39.60;18.42;;;;;;;-6.36;84.99;99941.78;1767401;81;20944;-67
2021/12/27 04:58:48;;;;;;;30.57;16.02;;;;;;;-6.35;85.00;99944.27;1767460;80;20955;-65
2021/12/27 05:01:17;;;;;;;34.15;17.42;;;;;;;-6.36;84.89;99941.28;1771309;80;21620;-66
2021/12/27 05:03:43;;;;;;;34.40;17.80;;;;;;;-6.45;84.72;99945.66;1779585;79;21472;-66
2021/12/27 05:06:13;;;;;;;38.23;17.77;;;;;;;-6.49;84.89;99946.06;1780622;79;21041;-64
2021/12/27 05:08:41;;;;;;;37.35;18.82;;;;;;;-6.44;85.24;99952.17;1774170;79;20940;-66
2021/12/27 05:11:09;;;;;;;38.33;18.10;;;;;;;-6.40;85.06;99955.30;1782118;80;21018;-66
2021/12/27 05:13:36;;;;;;;40.90;20.30;;;;;;;-6.37;85.14;99955.73;1787768;80;21077;-67
2021/12/27 05:16:03;;;;;;;34.35;17.17;;;;;;;-6.33;85.21;99956.17;1783277;79;21003;-66
2021/12/27 05:18:30;;;;;;;34.70;17.98;;;;;;;-6.27;85.12;99964.76;1785334;80;20887;-65
2021/12/27 05:20:56;;;;;;;50.30;20.57;;;;;;;-6.26;84.85;99958.89;1748031;80;21003;-66
2021/12/27 05:23:51;;;;;;;41.35;17.82;;;;;;;-6.26;84.69;99962.37;1666854;84;21060;-67
2021/12/27 05:26:19;;;;;;;32.28;18.70;;;;;;;-6.27;84.62;99970.63;1661549;85;21040;-66
2021/12/27 05:28:45;;;;;;;35.92;19.02;;;;;;;-6.28;84.55;99971.16;1645803;84;20965;-64
2021/12/27 05:31:12;;;;;;;37.33;18.00;;;;;;;-6.27;84.64;99980.02;1687961;85;20998;-65
2021/12/27 05:33:39;;;;;;;33.15;18.17;;;;;;;-6.23;84.83;99978.61;1676168;85;21053;-65
2021/12/27 05:36:07;;;;;;;34.38;17.57;;;;;;;-6.17;84.92;99987.70;1667442;85;20988;-66
2021/12/27 05:38:34;;;;;;;37.08;18.20;;;;;;;-6.15;84.83;99989.69;1662383;85;21152;-65
2021/12/27 05:41:03;;;;;;;36.08;17.48;;;;;;;-6.16;84.71;99987.51;1667571;84;21076;-66
2021/12/27 05:43:29;;;;;;;36.08;17.82;;;;;;;-6.20;84.64;99994.31;1651740;85;20944;-65
2021/12/27 05:45:56;;;;;;;37.08;18.37;;;;;;;-6.23;84.72;99991.49;1668133;85;20989;-65
2021/12/27 05:48:22;;;;;;;35.33;17.87;;;;;;;-6.24;84.75;99993.87;1664162;85;21346;-65
2021/12/27 05:50:48;;;;;;;41.92;19.60;;;;;;;-6.21;84.97;99996.69;1658715;85;21212;-64
2021/12/27 05:53:16;;;;;;;37.13;18.85;;;;;;;-6.16;84.98;99999.58;1666070;84;20896;-66
2021/12/27 05:55:45;;;;;;;39.53;18.73;;;;;;;-6.09;85.11;99998.81;1651655;85;21019;-65
2021/12/27 05:58:12;;;;;;;32.00;18.52;;;;;;;-6.10;84.78;99997.98;1673211;84;20979;-64
2021/12/27 06:00:39;;;;;;;42.33;20.50;;;;;;;-6.12;84.56;100004.05;1689035;84;21035;-66
2021/12/27 06:03:07;;;;;;;43.40;19.75;;;;;;;-6.14;84.67;100010.15;1662800;85;21154;-66
2021/12/27 06:05:33;;;;;;;37.35;19.85;;;;;;;-6.13;84.80;100015.31;1656475;85;21116;-66
2021/12/27 06:08:01;;;;;;;34.65;18.15;;;;;;;-6.11;84.70;100014.58;1662539;84;21126;-65
2021/12/27 06:10:30;;;;;;;38.73;19.42;;;;;;;-6.15;84.49;100020.55;1610994;87;21092;-62
2021/12/27 06:12:57;;;;;;;36.35;19.98;;;;;;;-6.20;84.48;100022.99;1659843;84;20981;-66
2021/12/27 06:15:24;;;;;;;40.75;19.57;;;;;;;-6.28;84.50;100018.12;1659822;85;21065;-67
2021/12/27 06:17:52;;;;;;;36.65;19.40;;;;;;;-6.29;84.77;100019.63;1662318;85;21092;-67
2021/12/27 06:20:19;;;;;;;43.45;19.75;;;;;;;-6.26;84.99;100024.63;1661184;85;21571;-66
2021/12/27 06:22:52;;;;;;;36.70;18.27;;;;;;;-6.25;84.98;100029.80;1661236;84;20996;-65
2021/12/27 06:25:18;;;;;;;35.73;18.27;;;;;;;-6.21;85.10;100036.94;1646921;86;21160;-66
2021/12/27 06:27:45;;;;;;;39.53;20.90;;;;;;;-6.24;84.86;100039.48;1655853;85;21141;-66
2021/12/27 06:30:13;;;;;;;43.15;19.37;;;;;;;-6.26;84.90;100038.04;1659183;85;21016;-64
2021/12/27 06:32:42;;;;;;;35.55;19.12;;;;;;;-6.28;84.91;100033.37;1613220;86;21456;-66
2021/12/27 06:35:10;;;;;;;37.20;18.12;;;;;;;-6.30;84.88;100033.58;1632107;86;21150;-66
2021/12/27 06:37:41;;;;;;;42.35;19.57;;;;;;;-6.29;85.02;100040.59;1661772;84;21029;-66
2021/12/27 06:40:09;;;;;;;43.40;19.90;;;;;;;-6.23;85.21;100043.01;1632361;86;21050;-66
2021/12/27 06:42:39;;;;;;;36.20;18.45;;;;;;;-6.20;85.23;100041.27;1664048;85;21111;-66
2021/12/27 06:45:07;;;;;;;34.98;17.32;;;;;;;-6.21;85.06;100034.77;1658561;85;20971;-65
2021/12/27 06:47:34;;;;;;;40.10;19.27;;;;;;;-6.17;85.27;100038.70;1659382;85;20995;-67
2021/12/27 06:50:01;;;;;;;36.70;19.20;;;;;;;-6.16;85.13;100040.37;1658233;85;20980;-67
2021/12/27 06:52:27;;;;;;;39.03;18.60;;;;;;;-6.15;85.13;100048.22;1659216;85;21959;-66
2021/12/27 06:54:54;;;;;;;42.10;20.02;;;;;;;-6.18;85.01;100043.25;1657366;85;20969;-66
2021/12/27 06:57:21;;;;;;;34.35;19.80;;;;;;;-6.18;85.14;100047.28;1673042;84;21076;-68
2021/12/27 06:59:48;;;;;;;38.10;18.52;;;;;;;-6.13;85.17;100056.91;1660341;84;20927;-67
2021/12/27 07:02:14;;;;;;;37.15;19.27;;;;;;;-6.12;85.17;100050.51;1608060;87;21458;-68
2021/12/27 07:04:42;;;;;;;37.33;19.87;;;;;;;-6.11;85.08;100045.44;1665836;85;21183;-68
2021/12/27 07:07:11;;;;;;;37.42;18.07;;;;;;;-6.09;85.15;100054.67;1662182;85;21051;-68
2021/12/27 07:09:39;;;;;;;43.80;20.15;;;;;;;-6.09;85.07;100044.44;1672194;84;20999;-66
2021/12/27 07:12:07;;;;;;;54.58;23.98;;;;;;;-6.06;85.26;100043.53;1629910;86;21081;-66
2021/12/27 07:14:35;;;;;;;44.10;20.23;;;;;;;-6.03;85.11;100055.69;1684136;83;21059;-67
2021/12/27 07:17:02;;;;;;;47.13;23.10;;;;;;;-5.99;84.98;100056.97;1667973;84;21507;-67
2021/12/27 07:19:28;;;;;;;55.20;22.58;;;;;;;-6.00;84.76;100062.00;1661021;84;20980;-67
2021/12/27 07:21:54;;;;;;;34.92;18.90;;;;;;;-5.94;84.96;100065.77;1668724;84;20979;-66
2021/12/27 07:24:21;;;;;;;46.18;21.23;;;;;;;-5.86;85.00;100069.12;1653189;84;21012;-66
2021/12/27 07:26:52;;;;;;;52.05;24.65;;;;;;;-5.78;84.65;100060.57;1667112;83;21430;-67
2021/12/27 07:29:20;;;;;;;44.15;20.82;;;;;;;-5.74;84.08;100065.37;1658363;84;21253;-67
2021/12/27 07:31:46;;;;;;;45.70;22.25;;;;;;;-5.72;83.93;100073.73;1631230;86;21102;-67
2021/12/27 07:34:13;;;;;;;43.35;20.48;;;;;;;-5.74;83.79;100076.11;1661150;85;20995;-68
2021/12/27 07:36:39;;;;;;;40.80;19.12;;;;;;;-5.75;83.68;100078.99;1665732;86;21059;-66
2021/12/27 07:39:06;;;;;;;40.45;20.72;;;;;;;-5.78;83.47;100080.70;1662777;84;21024;-67
2021/12/27 07:41:35;;;;;;;42.83;20.82;;;;;;;-5.88;83.32;100081.91;1665680;86;21038;-65
2021/12/27 07:44:05;;;;;;;53.48;24.72;;;;;;;-5.93;83.42;100077.64;1662449;84;21574;-68
2021/12/27 07:46:32;;;;;;;50.48;22.27;;;;;;;-5.94;83.53;100083.21;1663859;86;20952;-66
2021/12/27 07:48:58;;;;;;;44.58;20.48;;;;;;;-5.91;83.66;100085.50;1664694;86;21078;-68
2021/12/27 07:51:26;;;;;;;43.13;19.27;;;;;;;-5.88;83.73;100080.56;1664204;86;20952;-66
2021/12/27 07:53:53;;;;;;;45.60;19.82;;;;;;;-5.89;83.43;100084.28;1667536;86;21198;-67
2021/12/27 07:56:19;;;;;;;36.53;18.77;;;;;;;-5.96;83.36;100084.75;1629124;87;21646;-67
2021/12/27 07:58:45;;;;;;;46.92;21.35;;;;;;;-6.03;83.43;100083.37;1644940;86;21059;-66
2021/12/27 08:01:12;;;;;;;36.20;17.77;;;;;;;-6.05;83.64;100087.28;1622437;86;21079;-66
2021/12/27 08:03:38;;;;;;;51.48;23.45;;;;;;;-6.05;83.61;100087.28;1665685;85;21464;-65
2021/12/27 08:06:04;;;;;;;40.55;19.10;;;;;;;-6.08;83.76;100093.05;1667440;84;21121;-67
2021/12/27 08:08:31;;;;;;;46.88;21.20;;;;;;;-6.05;84.04;100088.63;1636227;86;21003;-67
2021/12/27 08:10:57;;;;;;;47.15;20.75;;;;;;;-6.03;83.96;100089.23;1667812;84;20956;-68
2021/12/27 08:13:24;;;;;;;48.90;19.62;;;;;;;-6.04;83.91;100095.64;1671951;83;21023;-66
2021/12/27 08:15:50;;;;;;;46.88;21.40;;;;;;;-6.04;83.97;100099.67;1668940;84;21076;-66
2021/12/27 08:18:17;;;;;;;36.88;17.30;;;;;;;-6.05;84.09;100096.17;1662324;84;21475;-68
2021/12/27 08:20:45;;;;;;;39.95;17.45;;;;;;;-5.98;84.31;100097.53;1634371;85;20912;-66
2021/12/27 08:23:11;;;;;;;40.15;17.35;;;;;;;-5.96;84.21;100100.02;1667155;84;21016;-65
2021/12/27 08:25:37;;;;;;;40.45;17.55;;;;;;;-5.95;84.12;100097.67;1654652;84;20977;-67
2021/12/27 08:28:05;;;;;;;35.52;16.75;;;;;;;-5.98;83.99;100096.19;1658057;84;21036;-69
2021/12/27 08:30:32;;;;;;;39.18;19.50;;;;;;;-5.99;84.08;100101.25;1659886;84;21157;-66
2021/12/27 08:32:59;;;;;;;35.43;17.77;;;;;;;-6.02;84.08;100101.66;1659543;84;21602;-65
2021/12/27 08:35:26;;;;;;;39.27;17.85;;;;;;;-5.98;84.40;100105.59;1669143;84;21068;-67
2021/12/27 08:37:52;;;;;;;36.48;19.02;;;;;;;-5.94;84.39;100105.52;1659068;84;21533;-66
2021/12/27 08:40:19;;;;;;;32.75;17.20;;;;;;;-5.89;84.41;100104.93;1666076;84;20984;-66
2021/12/27 08:42:46;;;;;;;38.17;18.45;;;;;;;-5.82;84.29;100103.62;1672434;84;21560;-68
2021/12/27 08:45:15;;;;;;;34.67;15.08;;;;;;;-5.83;84.06;100104.66;1661594;84;20862;-67
2021/12/27 08:47:42;;;;;;;38.85;15.90;;;;;;;-5.86;83.89;100091.94;1665808;84;21073;-67
2021/12/27 08:50:12;;;;;;;36.08;16.67;;;;;;;-5.88;83.99;100087.28;1661012;84;21099;-67
2021/12/27 08:52:41;;;;;;;39.42;19.37;;;;;;;-5.87;84.09;100084.89;1666711;84;21059;-67
2021/12/27 08:55:08;;;;;;;40.30;19.00;;;;;;;-5.80;84.42;100077.41;1654652;84;21998;-67
2021/12/27 08:57:36;;;;;;;32.23;18.10;;;;;;;-5.75;84.22;100083.83;1660211;84;21553;-67
2021/12/27 09:00:07;;;;;;;41.48;18.25;;;;;;;-5.73;84.03;100079.60;1659857;84;21068;-67
2021/12/27 09:02:34;;;;;;;43.28;21.02;;;;;;;-5.72;84.02;100090.67;1656509;84;20969;-67
2021/12/27 09:05:01;;;;;;;39.10;18.00;;;;;;;-5.77;83.86;100083.73;1657424;84;21458;-65
2021/12/27 09:07:28;;;;;;;36.55;16.82;;;;;;;-5.77;83.94;100080.54;1633124;86;21564;-66
2021/12/27 09:09:56;;;;;;;35.60;16.10;;;;;;;-5.71;84.13;100078.90;1658525;84;21011;-67
2021/12/27 09:12:22;;;;;;;37.08;17.65;;;;;;;-5.66;83.96;100075.61;1673596;84;21533;-67
2021/12/27 09:14:50;;;;;;;39.80;18.55;;;;;;;-5.62;83.82;100071.00;1656775;84;21074;-65
2021/12/27 09:17:17;;;;;;;42.15;18.45;;;;;;;-5.62;83.24;100071.00;1629770;86;21043;-66
2021/12/27 09:19:45;;;;;;;33.28;15.88;;;;;;;-5.68;83.12;100068.28;1656293;84;21003;-67
2021/12/27 09:22:15;;;;;;;30.23;15.90;;;;;;;-5.70;83.32;100071.67;1637055;86;21695;-67
2021/12/27 09:24:42;;;;;;;38.02;17.20;;;;;;;-5.76;83.36;100065.23;1662806;84;21555;-67
2021/12/27 09:27:09;;;;;;;44.75;18.15;;;;;;;-5.76;83.58;100069.27;1657307;84;21537;-67
2021/12/27 09:29:37;;;;;;;34.78;16.55;;;;;;;-5.76;83.63;100066.58;1662621;84;20983;-67
2021/12/27 09:32:05;;;;;;;34.20;17.15;;;;;;;-5.79;83.67;100067.81;1667163;84;21132;-68
2021/12/27 09:34:32;;;;;;;34.60;17.07;;;;;;;-5.84;83.50;100071.61;1664761;84;20982;-67
2021/12/27 09:37:01;;;;;;;37.15;16.55;;;;;;;-5.91;83.68;100067.54;1630895;85;21088;-67
2021/12/27 09:39:28;;;;;;;34.30;16.93;;;;;;;-5.90;84.02;100068.38;1661011;85;21222;-67
2021/12/27 09:41:54;;;;;;;38.95;18.60;;;;;;;-5.86;84.15;100069.12;1661014;85;21090;-68
2021/12/27 09:44:21;;;;;;;37.95;16.20;;;;;;;-5.83;84.06;100063.86;1661155;85;21094;-67
2021/12/27 09:46:48;;;;;;;43.25;19.62;;;;;;;-5.78;84.20;100075.34;1635260;86;21056;-66
2021/12/27 09:49:16;;;;;;;37.25;17.12;;;;;;;-5.77;84.23;100075.17;1661872;85;21019;-67
2021/12/27 09:51:44;;;;;;;30.80;16.25;;;;;;;-5.75;84.12;100085.70;1668605;84;20973;-67
2021/12/27 09:54:10;;;;;;;43.20;20.08;;;;;;;-5.75;84.14;100081.68;1649759;86;21031;-67
2021/12/27 09:56:37;;;;;;;41.48;20.10;;;;;;;-5.69;84.43;100085.41;1667239;84;21115;-67
2021/12/27 09:59:04;;;;;;;43.20;20.72;;;;;;;-5.68;84.10;100085.20;1666077;84;21555;-67
2021/12/27 10:01:32;;;;;;;49.55;21.00;;;;;;;-5.70;83.99;100083.77;1659313;85;21520;-67
2021/12/27 10:04:00;;;;;;;51.37;24.87;;;;;;;-5.69;84.04;100074.16;1651887;86;21003;-67
2021/12/27 10:06:27;;;;;;;45.05;19.50;;;;;;;-5.69;83.99;100076.84;1668150;84;20869;-67
2021/12/27 10:08:58;;;;;;;41.73;19.92;;;;;;;-5.68;84.16;100077.16;1661745;85;21974;-66
2021/12/27 10:11:38;;;;;;;45.67;21.37;;;;;;;-5.70;84.11;100081.92;1632715;86;20960;-68
2021/12/27 10:14:10;;;;;;;40.83;19.65;;;;;;;-5.68;84.27;100077.16;1659818;84;21034;-68
2021/12/27 10:16:44;;;;;;;43.42;18.73;;;;;;;-5.67;84.27;100076.65;1659682;84;23047;-66
2021/12/27 10:19:11;;;;;;;45.85;21.10;;;;;;;-5.61;84.47;100077.19;1634457;86;21071;-67
2021/12/27 10:21:44;;;;;;;40.70;19.55;;;;;;;-5.59;84.48;100068.92;1623349;87;21140;-67
2021/12/27 10:24:16;;;;;;;45.28;20.60;;;;;;;-5.53;84.36;100072.17;1613051;87;21554;-67
2021/12/27 10:26:46;;;;;;;43.85;20.43;;;;;;;-5.55;84.00;100072.38;1618999;87;21011;-67
2021/12/27 10:29:18;;;;;;;51.80;23.35;;;;;;;-5.59;84.12;100077.82;1628679;87;20995;-66
2021/12/27 10:32:09;;;;;;;52.70;22.58;;;;;;;-5.59;84.06;100080.50;1600731;88;21173;-66
2021/12/27 10:34:47;;;;;;;53.52;22.42;;;;;;;-5.60;84.05;100084.23;1600007;88;21396;-66
2021/12/27 10:37:25;;;;;;;45.78;21.20;;;;;;;-5.58;84.20;100088.90;1616911;87;21063;-65
2021/12/27 10:40:11;;;;;;;46.05;20.90;;;;;;;-5.58;84.23;100088.06;1661649;85;21528;-66
2021/12/27 10:42:46;;;;;;;43.50;19.25;;;;;;;-5.54;84.40;100087.96;1630619;85;21110;-68
2021/12/27 10:45:16;;;;;;;32.60;14.90;;;;;;;-5.53;84.39;100082.42;1647047;86;21079;-65
2021/12/27 10:47:53;;;;;;;43.02;19.02;;;;;;;-5.51;84.31;100082.22;1659206;85;21119;-66
2021/12/27 10:50:26;;;;;;;45.88;18.45;;;;;;;-5.45;84.34;100084.59;1620182;87;21035;-65
2021/12/27 10:52:58;;;;;;;46.53;18.02;;;;;;;-5.45;84.19;100088.13;1661065;85;21576;-64
2021/12/27 10:55:39;;;;;;;28.65;13.50;;;;;;;-5.41;84.14;100085.33;1661849;85;21044;-67
2021/12/27 10:58:23;;;;;;;52.58;21.50;;;;;;;-5.39;84.08;100082.47;1658808;85;21039;-65
2021/12/27 11:01:00;;;;;;;52.80;22.90;;;;;;;-5.43;83.93;100079.35;1662629;85;21103;-67
2021/12/27 11:03:33;;;;;;;51.05;21.20;;;;;;;-5.47;83.79;100087.48;1658668;85;21012;-66
2021/12/27 11:06:02;;;;;;;45.92;22.00;;;;;;;-5.53;83.80;100084.27;1657729;85;21520;-64
2021/12/27 11:08:29;;;;;;;45.98;21.65;;;;;;;-5.54;84.03;100083.42;1631004;85;21048;-64
2021/12/27 11:10:57;;;;;;;48.90;21.55;;;;;;;-5.49;84.13;100077.45;1665256;84;21033;-66
2021/12/27 11:13:25;;;;;;;48.08;22.85;;;;;;;-5.48;84.02;100081.81;1630012;85;22236;-66
2021/12/27 11:15:52;;;;;;;39.70;18.65;;;;;;;-5.46;83.97;100086.98;1669353;84;21086;-66
2021/12/27 11:18:18;;;;;;;62.75;20.95;;;;;;;-5.54;83.88;100078.56;1667618;84;21004;-66
2021/12/27 11:20:56;;;;;;;47.35;18.67;;;;;;;-5.57;83.87;100082.99;1656187;86;21020;-65
2021/12/27 11:23:27;;;;;;;37.95;18.15;;;;;;;-5.63;83.81;100086.78;1672300;84;20949;-64
2021/12/27 11:26:06;;;;;;;33.15;15.85;;;;;;;-5.65;84.13;100084.84;1636532;86;21290;-66